Time,TemperatureF,DewpointF,PressureIn,WindDirection,WindDirectionDegrees,WindSpeedMPH,WindSpeedGustMPH,Humidity,HourlyPrecipIn,Conditions,Clouds,dailyrainin,SoftwareType,DateUTC
2013-12-13 00:05:00,22.5,16.0,30.25,West,273,5.0,-999.0,76,-99.99,,,0.00,weatherlink.com 1.10,2013-12-13 05:05:00,
2013-12-13 00:20:00,23.1,17.0,30.24,West,272,3.0,-999.0,76,-99.99,,,0.00,weatherlink.com 1.10,2013-12-13 05:20:00,
2013-12-13 00:35:00,23.5,17.0,30.24,West,274,4.0,-999.0,77,-99.99,,,0.00,weatherlink.com 1.10,2013-12-13 05:35:00,
2013-12-13 00:50:00,23.3,17.0,30.23,West,277,5.0,-999.0,77,-99.99,,,0.00,weatherlink.com 1.10,2013-12-13 05:50:00,
2013-12-13 01:05:00,23.1,17.0,30.23,West,279,4.0,-999.0,77,-99.99,,,0.00,weatherlink.com 1.10,2013-12-13 06:05:00,
2013-12-13 01:20:00,23.1,17.0,30.23,West,273,5.0,-999.0,77,-99.99,,,0.00,weatherlink.com 1.10,2013-12-13 06:20:00,
2013-12-13 01:36:00,23.3,17.0,30.23,West,274,5.0,-999.0,77,-99.99,,,0.00,weatherlink.com 1.10,2013-12-13 06:36:00,
2013-12-13 01:51:00,23.2,17.0,30.23,West,277,5.0,-999.0,77,-99.99,,,0.00,weatherlink.com 1.10,2013-12-13 06:51:00,
2013-12-13 02:06:00,23.2,17.0,30.23,West,274,3.0,-999.0,77,-99.99,,,0.00,weatherlink.com 1.10,2013-12-13 07:06:00,
2013-12-13 02:21:00,23.2,17.0,30.23,West,275,2.0,-999.0,77,-99.99,,,0.00,weatherlink.com 1.10,2013-12-13 07:21:00,
2013-12-13 02:36:00,23.2,17.0,30.23,West,277,3.0,-999.0,77,-99.99,,,0.00,weatherlink.com 1.10,2013-12-13 07:36:00,
2013-12-13 02:51:00,23.6,17.0,30.22,West,280,7.0,-999.0,77,-99.99,,,0.00,weatherlink.com 1.10,2013-12-13 07:51:00,
2013-12-13 03:06:00,24.0,17.0,30.23,West,264,6.0,-999.0,76,-99.99,,,0.00,weatherlink.com 1.10,2013-12-13 08:06:00,
2013-12-13 03:21:00,24.5,18.0,30.23,West,265,7.0,-999.0,77,-99.99,,,0.00,weatherlink.com 1.10,2013-12-13 08:21:00,
2013-12-13 03:36:00,24.9,18.0,30.23,West,270,5.0,-999.0,76,-99.99,,,0.00,weatherlink.com 1.10,2013-12-13 08:36:00,
2013-12-13 03:51:00,25.4,19.0,30.23,West,271,6.0,-999.0,75,-99.99,,,0.00,weatherlink.com 1.10,2013-12-13 08:51:00,
2013-12-13 04:06:00,25.6,19.0,30.22,WNW,284,6.0,-999.0,75,-99.99,,,0.00,weatherlink.com 1.10,2013-12-13 09:06:00,
2013-12-13 04:21:00,25.5,19.0,30.23,West,269,6.0,-999.0,75,-99.99,,,0.00,weatherlink.com 1.10,2013-12-13 09:21:00,
2013-12-13 04:37:00,25.5,19.0,30.22,West,275,5.0,-999.0,75,-99.99,,,0.00,weatherlink.com 1.10,2013-12-13 09:37:00,
2013-12-13 04:52:00,25.2,18.0,30.22,WNW,282,5.0,-999.0,75,-99.99,,,0.00,weatherlink.com 1.10,2013-12-13 09:52:00,
2013-12-13 05:07:00,25.3,18.0,30.23,WNW,285,5.0,-999.0,75,-99.99,,,0.00,weatherlink.com 1.10,2013-12-13 10:07:00,
2013-12-13 05:22:00,25.7,19.0,30.24,West,271,7.0,-999.0,75,-99.99,,,0.00,weatherlink.com 1.10,2013-12-13 10:22:00,
2013-12-13 05:37:00,25.8,19.0,30.24,West,281,7.0,-999.0,76,-99.99,,,0.00,weatherlink.com 1.10,2013-12-13 10:37:00,
2013-12-13 05:52:00,25.4,19.0,30.24,WNW,285,6.0,-999.0,76,-99.99,,,0.00,weatherlink.com 1.10,2013-12-13 10:52:00,
2013-12-13 06:07:00,25.6,19.0,30.24,West,279,7.0,-999.0,77,-99.99,,,0.00,weatherlink.com 1.10,2013-12-13 11:07:00,
2013-12-13 06:22:00,25.9,20.0,30.24,WNW,283,6.0,-999.0,77,-99.99,,,0.00,weatherlink.com 1.10,2013-12-13 11:22:00,
2013-12-13 06:37:00,26.1,20.0,30.25,West,269,6.0,-999.0,77,-99.99,,,0.00,weatherlink.com 1.10,2013-12-13 11:37:00,
2013-12-13 06:52:00,26.5,20.0,30.25,West,281,7.0,-999.0,77,-99.99,,,0.00,weatherlink.com 1.10,2013-12-13 11:52:00,
2013-12-13 07:07:00,26.9,21.0,30.25,West,278,3.0,-999.0,77,-99.99,,,0.00,weatherlink.com 1.10,2013-12-13 12:07:00,
2013-12-13 07:23:00,28.1,21.0,30.25,WNW,284,5.0,-999.0,75,-99.99,,,0.00,weatherlink.com 1.10,2013-12-13 12:23:00,
2013-12-13 07:38:00,28.6,21.0,30.24,West,277,7.0,-999.0,72,-99.99,,,0.00,weatherlink.com 1.10,2013-12-13 12:38:00,
2013-12-13 07:53:00,28.2,20.0,30.25,West,277,10.0,-999.0,72,-99.99,,,0.00,weatherlink.com 1.10,2013-12-13 12:53:00,
2013-12-13 08:08:00,28.1,20.0,30.25,WSW,248,6.0,-999.0,72,-99.99,,,0.00,weatherlink.com 1.10,2013-12-13 13:08:00,
2013-12-13 08:23:00,27.8,21.0,30.26,West,266,8.0,-999.0,74,-99.99,,,0.00,weatherlink.com 1.10,2013-12-13 13:23:00,
2013-12-13 08:38:00,28.1,21.0,30.27,WNW,286,6.0,-999.0,74,-99.99,,,0.00,weatherlink.com 1.10,2013-12-13 13:38:00,
2013-12-13 08:53:00,29.0,21.0,30.27,WNW,290,6.0,-999.0,73,-99.99,,,0.00,weatherlink.com 1.10,2013-12-13 13:53:00,
2013-12-13 09:08:00,29.6,21.0,30.28,West,275,6.0,-999.0,70,-99.99,,,0.00,weatherlink.com 1.10,2013-12-13 14:08:00,
2013-12-13 09:23:00,30.4,21.0,30.28,West,277,9.0,-999.0,68,-99.99,,,0.00,weatherlink.com 1.10,2013-12-13 14:23:00,
2013-12-13 09:38:00,31.1,21.0,30.28,WNW,283,4.0,-999.0,66,-99.99,,,0.00,weatherlink.com 1.10,2013-12-13 14:38:00,
2013-12-13 09:54:00,31.7,21.0,30.27,WNW,282,10.0,-999.0,64,-99.99,,,0.00,weatherlink.com 1.10,2013-12-13 14:54:00,
2013-12-13 10:09:00,33.4,21.0,30.28,WNW,287,11.0,-999.0,60,-99.99,,,0.00,weatherlink.com 1.10,2013-12-13 15:09:00,
2013-12-13 10:24:00,34.4,20.0,30.27,West,267,13.0,-999.0,57,-99.99,,,0.00,weatherlink.com 1.10,2013-12-13 15:24:00,
2013-12-13 10:39:00,35.3,20.0,30.27,West,281,10.0,-999.0,55,-99.99,,,0.00,weatherlink.com 1.10,2013-12-13 15:39:00,
2013-12-13 10:54:00,36.0,20.0,30.27,West,277,7.0,-999.0,53,-99.99,,,0.00,weatherlink.com 1.10,2013-12-13 15:54:00,
2013-12-13 11:09:00,36.6,19.0,30.26,WNW,286,4.0,-999.0,50,-99.99,,,0.00,weatherlink.com 1.10,2013-12-13 16:09:00,
2013-12-13 11:24:00,37.9,20.0,30.26,WNW,283,9.0,-999.0,49,-99.99,,,0.00,weatherlink.com 1.10,2013-12-13 16:24:00,
2013-12-13 11:39:00,37.9,20.0,30.24,WNW,303,10.0,-999.0,48,-99.99,,,0.00,weatherlink.com 1.10,2013-12-13 16:39:00,
2013-12-13 11:54:00,38.0,19.0,30.24,WNW,294,4.0,-999.0,47,-99.99,,,0.00,weatherlink.com 1.10,2013-12-13 16:54:00,
2013-12-13 12:10:00,38.6,20.0,30.23,WNW,288,9.0,-999.0,47,-99.99,,,0.00,weatherlink.com 1.10,2013-12-13 17:10:00,
2013-12-13 12:25:00,38.4,20.0,30.23,WNW,282,11.0,-999.0,48,-99.99,,,0.00,weatherlink.com 1.10,2013-12-13 17:25:00,
2013-12-13 12:40:00,39.5,21.0,30.23,WNW,290,4.0,-999.0,47,-99.99,,,0.00,weatherlink.com 1.10,2013-12-13 17:40:00,
2013-12-13 12:55:00,39.9,20.0,30.22,WNW,286,12.0,-999.0,46,-99.99,,,0.00,weatherlink.com 1.10,2013-12-13 17:55:00,
2013-12-13 13:10:00,39.6,21.0,30.22,WNW,292,5.0,-999.0,47,-99.99,,,0.00,weatherlink.com 1.10,2013-12-13 18:10:00,
2013-12-13 13:25:00,40.0,21.0,30.22,WSW,254,5.0,-999.0,46,-99.99,,,0.01,weatherlink.com 1.10,2013-12-13 18:25:00,
2013-12-13 13:40:00,40.4,19.0,30.22,West,274,9.0,-999.0,43,-99.99,,,0.01,weatherlink.com 1.10,2013-12-13 18:40:00,
2013-12-13 13:55:00,40.6,20.0,30.21,West,279,5.0,-999.0,44,-99.99,,,0.01,weatherlink.com 1.10,2013-12-13 18:55:00,
2013-12-13 14:10:00,40.8,20.0,30.22,West,277,6.0,-999.0,44,-99.99,,,0.01,weatherlink.com 1.10,2013-12-13 19:10:00,
2013-12-13 14:25:00,40.3,20.0,30.22,West,263,11.0,-999.0,45,-99.99,,,0.01,weatherlink.com 1.10,2013-12-13 19:25:00,
2013-12-13 14:40:00,40.9,20.0,30.21,NW,309,4.0,-999.0,43,-99.99,,,0.01,weatherlink.com 1.10,2013-12-13 19:40:00,
2013-12-13 14:55:00,40.2,20.0,30.22,WNW,286,12.0,-999.0,45,-99.99,,,0.01,weatherlink.com 1.10,2013-12-13 19:55:00,
2013-12-13 15:11:00,40.0,21.0,30.22,WNW,288,9.0,-999.0,46,-99.99,,,0.01,weatherlink.com 1.10,2013-12-13 20:11:00,
2013-12-13 15:26:00,39.8,20.0,30.23,West,271,12.0,-999.0,46,-99.99,,,0.01,weatherlink.com 1.10,2013-12-13 20:26:00,
2013-12-13 15:41:00,39.7,20.0,30.23,WNW,286,13.0,-999.0,46,-99.99,,,0.01,weatherlink.com 1.10,2013-12-13 20:41:00,
2013-12-13 15:56:00,39.2,20.0,30.24,WNW,286,10.0,-999.0,46,-99.99,,,0.01,weatherlink.com 1.10,2013-12-13 20:56:00,
2013-12-13 16:11:00,38.3,20.0,30.25,WNW,288,5.0,-999.0,48,-99.99,,,0.01,weatherlink.com 1.10,2013-12-13 21:11:00,
2013-12-13 16:26:00,37.8,20.0,30.26,WNW,285,5.0,-999.0,49,-99.99,,,0.01,weatherlink.com 1.10,2013-12-13 21:26:00,
2013-12-13 16:41:00,37.2,20.0,30.26,West,279,3.0,-999.0,50,-99.99,,,0.01,weatherlink.com 1.10,2013-12-13 21:41:00,
2013-12-13 16:56:00,36.6,20.0,30.27,WNW,285,5.0,-999.0,52,-99.99,,,0.01,weatherlink.com 1.10,2013-12-13 21:56:00,
2013-12-13 17:11:00,35.9,21.0,30.27,West,280,2.0,-999.0,55,-99.99,,,0.01,weatherlink.com 1.10,2013-12-13 22:11:00,
2013-12-13 17:26:00,35.2,21.0,30.27,WNW,289,3.0,-999.0,56,-99.99,,,0.01,weatherlink.com 1.10,2013-12-13 22:26:00,
2013-12-13 17:41:00,35.5,21.0,30.28,West,280,2.0,-999.0,56,-99.99,,,0.01,weatherlink.com 1.10,2013-12-13 22:41:00,
2013-12-13 17:57:00,34.5,21.0,30.28,West,269,2.0,-999.0,59,-99.99,,,0.01,weatherlink.com 1.10,2013-12-13 22:57:00,
2013-12-13 18:12:00,32.9,20.0,30.28,WSW,258,3.0,-999.0,60,-99.99,,,0.01,weatherlink.com 1.10,2013-12-13 23:12:00,
2013-12-13 18:27:00,33.0,20.0,30.28,WSW,247,3.0,-999.0,59,-99.99,,,0.01,weatherlink.com 1.10,2013-12-13 23:27:00,
2013-12-13 18:42:00,33.0,20.0,30.29,East,96,5.0,-999.0,59,-99.99,,,0.01,weatherlink.com 1.10,2013-12-13 23:42:00,
2013-12-13 18:57:00,32.7,20.0,30.29,East,84,3.0,-999.0,60,-99.99,,,0.01,weatherlink.com 1.10,2013-12-13 23:57:00,
2013-12-13 19:12:00,33.5,22.0,30.30,West,271,1.0,-999.0,62,-99.99,,,0.01,weatherlink.com 1.10,2013-12-14 00:12:00,
2013-12-13 19:27:00,32.9,22.0,30.30,West,279,4.0,-999.0,64,-99.99,,,0.01,weatherlink.com 1.10,2013-12-14 00:27:00,
2013-12-13 19:42:00,32.9,22.0,30.31,WNW,284,3.0,-999.0,64,-99.99,,,0.01,weatherlink.com 1.10,2013-12-14 00:42:00,
2013-12-13 19:57:00,33.3,22.0,30.31,WNW,284,0.0,-999.0,64,-99.99,,,0.01,weatherlink.com 1.10,2013-12-14 00:57:00,
2013-12-13 20:13:00,33.7,22.0,30.31,WNW,284,2.0,-999.0,62,-99.99,,,0.01,weatherlink.com 1.10,2013-12-14 01:13:00,
2013-12-13 20:43:00,33.7,22.0,30.31,WNW,285,0.0,-999.0,62,-99.99,,,0.01,weatherlink.com 1.10,2013-12-14 01:43:00,
2013-12-13 20:58:00,33.2,22.0,30.31,WNW,285,0.0,-999.0,63,-99.99,,,0.01,weatherlink.com 1.10,2013-12-14 01:58:00,
2013-12-13 21:13:00,32.8,22.0,30.31,WNW,285,0.0,-999.0,64,-99.99,,,0.01,weatherlink.com 1.10,2013-12-14 02:13:00,
2013-12-13 21:28:00,32.3,22.0,30.31,WNW,284,0.0,-999.0,66,-99.99,,,0.01,weatherlink.com 1.10,2013-12-14 02:28:00,
2013-12-13 21:43:00,31.9,23.0,30.32,WNW,284,0.0,-999.0,71,-99.99,,,0.01,weatherlink.com 1.10,2013-12-14 02:43:00,
2013-12-13 21:58:00,32.1,24.0,30.32,West,274,0.0,-999.0,73,-99.99,,,0.01,weatherlink.com 1.10,2013-12-14 02:58:00,
2013-12-13 22:13:00,31.8,24.0,30.32,West,274,0.0,-999.0,74,-99.99,,,0.01,weatherlink.com 1.10,2013-12-14 03:13:00,
2013-12-13 22:28:00,31.2,24.0,30.32,West,274,0.0,-999.0,74,-99.99,,,0.01,weatherlink.com 1.10,2013-12-14 03:28:00,
2013-12-13 22:43:00,31.2,23.0,30.34,West,274,0.0,-999.0,73,-99.99,,,0.01,weatherlink.com 1.10,2013-12-14 03:43:00,
2013-12-13 22:58:00,31.4,24.0,30.34,West,274,0.0,-999.0,73,-99.99,,,0.01,weatherlink.com 1.10,2013-12-14 03:58:00,
2013-12-13 23:14:00,31.5,24.0,30.34,West,274,0.0,-999.0,73,-99.99,,,0.01,weatherlink.com 1.10,2013-12-14 04:14:00,
2013-12-13 23:29:00,31.6,24.0,30.34,West,274,0.0,-999.0,72,-99.99,,,0.01,weatherlink.com 1.10,2013-12-14 04:29:00,
2013-12-13 23:44:00,31.4,23.0,30.34,West,274,0.0,-999.0,72,-99.99,,,0.01,weatherlink.com 1.10,2013-12-14 04:44:00,
2013-12-13 23:59:00,31.7,24.0,30.34,West,274,0.0,-999.0,72,-99.99,,,0.01,weatherlink.com 1.10,2013-12-14 04:59:00,